Time;durP1;ratioP1;P1;durP2;ratioP2;P2;SDS_P1;SDS_P2;PMS_P1;PMS_P2;Temp;Humidity;BMP_temperature;BMP_pressure;BME280_temperature;BME280_humidity;BME280_pressure;Samples;Min_cycle;Max_cycle;Signal;HPM_P1;HPM_P2
2021/06/23 00:00:23;;;;;;;12.80;10.82;;;;;;;19.46;74.52;100344.66;5009408;28;20417;-93
2021/06/23 00:02:49;;;;;;;13.27;11.57;;;;;;;19.48;74.30;100332.25;4993221;28;20403;-92
2021/06/23 00:05:15;;;;;;;14.20;11.10;;;;;;;19.47;74.53;100336.09;5004630;28;20420;-92
2021/06/23 00:07:41;;;;;;;10.75;9.52;;;;;;;19.48;74.58;100335.00;5012138;28;20402;-91
2021/06/23 00:10:07;;;;;;;13.13;11.73;;;;;;;19.48;74.34;100328.69;5025928;28;20530;-92
2021/06/23 00:12:32;;;;;;;12.73;11.25;;;;;;;19.42;74.33;100335.41;4993186;28;20398;-92
2021/06/23 00:14:57;;;;;;;12.60;11.37;;;;;;;19.38;74.52;100337.91;4992761;28;20906;-92
2021/06/23 00:17:23;;;;;;;13.93;11.93;;;;;;;19.36;74.74;100336.59;4993009;28;21052;-92
2021/06/23 00:19:48;;;;;;;12.57;11.27;;;;;;;19.34;74.83;100341.56;4992847;28;20429;-91
2021/06/23 00:22:14;;;;;;;15.70;11.20;;;;;;;19.37;74.74;100332.72;4992991;28;20841;-91
2021/06/23 00:24:40;;;;;;;15.20;11.10;;;;;;;19.36;74.43;100331.94;4979083;28;20412;-92
2021/06/23 00:27:06;;;;;;;15.00;12.67;;;;;;;19.38;74.38;100340.66;4974395;28;20435;-91
2021/06/23 00:29:31;;;;;;;14.88;11.77;;;;;;;19.35;74.76;100332.22;4989479;28;20396;-92
2021/06/23 00:31:56;;;;;;;13.70;12.23;;;;;;;19.36;74.63;100336.59;4974995;28;20459;-91
2021/06/23 00:34:23;;;;;;;12.73;11.43;;;;;;;19.32;74.83;100330.09;4993464;28;20758;-91
2021/06/23 00:36:48;;;;;;;14.02;12.63;;;;;;;19.33;74.76;100338.00;4993525;28;20480;-92
2021/06/23 00:39:13;;;;;;;13.50;11.83;;;;;;;19.35;74.98;100338.53;4990793;28;20419;-92
2021/06/23 00:41:39;;;;;;;13.25;11.85;;;;;;;19.37;74.98;100335.47;4992151;28;20414;-91
2021/06/23 00:44:04;;;;;;;12.37;11.17;;;;;;;19.40;74.78;100343.09;4993521;28;20405;-91
2021/06/23 00:46:30;;;;;;;12.10;11.00;;;;;;;19.43;75.39;100345.28;4987054;28;20416;-92
2021/06/23 00:48:57;;;;;;;13.85;11.98;;;;;;;19.40;74.95;100340.34;4983115;28;20633;-93
2021/06/23 00:51:23;;;;;;;13.75;12.40;;;;;;;19.36;74.74;100339.34;4992517;28;20395;-92
2021/06/23 00:53:48;;;;;;;15.98;12.23;;;;;;;19.36;75.11;100348.41;4993383;28;20414;-92
2021/06/23 00:56:15;;;;;;;15.30;11.67;;;;;;;19.34;75.10;100347.06;4993525;28;20418;-92
2021/06/23 00:58:41;;;;;;;14.02;11.80;;;;;;;19.35;74.93;100337.72;4992714;28;20893;-92
2021/06/23 01:01:08;;;;;;;16.05;13.10;;;;;;;19.21;75.47;100336.88;5008837;28;20497;-92
2021/06/23 01:03:34;;;;;;;15.27;13.77;;;;;;;19.20;75.28;100336.06;4993540;28;20391;-91
2021/06/23 01:05:59;;;;;;;14.57;13.07;;;;;;;19.24;75.42;100325.28;4992543;28;20734;-91
2021/06/23 01:08:25;;;;;;;14.37;12.87;;;;;;;19.28;75.23;100326.31;5008040;28;20402;-92
2021/06/23 01:10:50;;;;;;;14.70;13.23;;;;;;;19.31;75.18;100325.69;4993339;28;20394;-91
2021/06/23 01:13:21;;;;;;;17.53;13.70;;;;;;;19.26;75.29;100325.81;4992384;28;20949;-92
2021/06/23 01:15:49;;;;;;;14.75;13.23;;;;;;;19.24;75.44;100325.28;4993368;28;20928;-92
2021/06/23 01:18:14;;;;;;;15.65;14.05;;;;;;;19.21;75.45;100332.22;4990621;28;20430;-92
2021/06/23 01:20:42;;;;;;;14.20;12.82;;;;;;;19.18;75.45;100330.06;4972691;28;20439;-92
2021/06/23 01:23:07;;;;;;;15.35;13.80;;;;;;;19.17;75.66;100323.75;4990119;28;20445;-92
2021/06/23 01:25:32;;;;;;;18.70;13.17;;;;;;;19.15;75.56;100319.69;4992084;28;20402;-93
2021/06/23 01:27:58;;;;;;;14.18;12.85;;;;;;;19.17;75.53;100334.75;4993150;28;20894;-91
2021/06/23 01:30:23;;;;;;;14.23;12.73;;;;;;;19.18;75.42;100336.38;4993898;28;20790;-91
2021/06/23 01:32:49;;;;;;;15.50;12.00;;;;;;;19.21;75.68;100334.13;4993156;28;20423;-92
2021/06/23 01:35:16;;;;;;;13.93;12.50;;;;;;;19.23;75.47;100332.75;4991620;28;20823;-91
2021/06/23 01:37:43;;;;;;;16.50;12.98;;;;;;;19.15;75.64;100338.94;4992913;28;20402;-91
2021/06/23 01:40:08;;;;;;;15.63;13.13;;;;;;;19.14;75.76;100329.06;4993030;28;20425;-93
2021/06/23 01:42:34;;;;;;;15.73;13.53;;;;;;;19.04;75.86;100324.56;5008083;28;20391;-91
2021/06/23 01:45:00;;;;;;;21.57;13.37;;;;;;;19.11;75.83;100335.16;5024069;28;20472;-91
2021/06/23 01:47:25;;;;;;;14.27;12.32;;;;;;;19.12;75.86;100332.13;4973307;28;20459;-91
2021/06/23 01:49:51;;;;;;;14.40;13.00;;;;;;;19.06;76.02;100327.84;5003967;28;20412;-91
2021/06/23 01:52:16;;;;;;;15.13;13.00;;;;;;;19.07;75.93;100328.63;5024344;28;20417;-91
2021/06/23 01:54:42;;;;;;;15.40;13.90;;;;;;;18.94;76.33;100319.28;4991436;28;20414;-93
2021/06/23 01:57:12;;;;;;;14.73;13.23;;;;;;;19.05;76.13;100311.66;4992733;28;20412;-93
2021/06/23 01:59:39;;;;;;;14.73;13.13;;;;;;;19.02;76.20;100315.00;4992906;28;20390;-91
2021/06/23 02:02:18;;;;;;;18.20;12.77;;;;;;;19.05;76.05;100311.66;4993507;28;20390;-93
2021/06/23 02:04:51;;;;;;;14.77;13.32;;;;;;;19.04;76.27;100316.34;4994906;28;20407;-93
2021/06/23 02:07:26;;;;;;;17.50;13.07;;;;;;;18.94;76.56;100322.03;4973556;28;20385;-94
2021/06/23 02:10:29;;;;;;;14.75;13.35;;;;;;;19.05;76.35;100323.47;4988672;28;20468;-92
2021/06/23 02:13:40;;;;;;;15.40;13.55;;;;;;;19.05;76.51;100311.66;4988394;28;20420;-93
2021/06/23 02:16:09;;;;;;;16.88;14.07;;;;;;;19.08;76.30;100316.53;4971871;28;20423;-93
2021/06/23 02:18:35;;;;;;;16.98;14.20;;;;;;;19.10;76.27;100323.34;4972089;28;20400;-92
2021/06/23 02:21:03;;;;;;;15.10;12.93;;;;;;;19.06;76.72;100325.09;4988566;28;20402;-92
2021/06/23 02:23:28;;;;;;;15.00;13.50;;;;;;;19.18;76.22;100327.34;4992382;28;20770;-92
2021/06/23 02:25:54;;;;;;;15.63;13.73;;;;;;;19.22;75.97;100325.59;4992605;28;20391;-92
2021/06/23 02:28:21;;;;;;;20.27;15.37;;;;;;;19.22;76.08;100324.78;4992457;28;20411;-93
2021/06/23 02:30:46;;;;;;;17.88;14.63;;;;;;;19.32;76.04;100328.16;4992979;28;20420;-92
2021/06/23 02:33:12;;;;;;;35.50;21.20;;;;;;;19.41;76.36;100329.09;4974710;28;20414;-90
2021/06/23 02:35:40;;;;;;;26.38;21.42;;;;;;;19.38;77.30;100318.69;4993859;28;20481;-90
2021/06/23 02:38:06;;;;;;;22.67;20.27;;;;;;;19.40;77.22;100324.69;5010280;28;20393;-90
2021/06/23 02:40:32;;;;;;;34.45;23.25;;;;;;;19.43;77.20;100324.09;4993471;28;20889;-93
2021/06/23 02:42:58;;;;;;;32.90;23.90;;;;;;;19.17;78.23;100314.72;4994224;28;20470;-89
2021/06/23 02:45:26;;;;;;;36.58;26.75;;;;;;;19.03;79.13;100322.94;4990788;28;20404;-89
2021/06/23 02:47:52;;;;;;;31.38;25.15;;;;;;;18.96;79.74;100338.22;4990035;28;20415;-90
2021/06/23 02:50:17;;;;;;;25.88;22.58;;;;;;;18.80;79.40;100367.06;4994637;28;20889;-89
2021/06/23 02:52:44;;;;;;;31.03;22.67;;;;;;;18.82;79.76;100367.56;4993679;28;20414;-91
2021/06/23 02:55:10;;;;;;;26.45;22.15;;;;;;;18.86;79.76;100360.34;4993191;28;20422;-91
2021/06/23 02:57:36;;;;;;;32.72;24.27;;;;;;;18.80;80.63;100347.84;4993571;28;20513;-91
2021/06/23 03:00:05;;;;;;;39.92;26.83;;;;;;;18.79;80.71;100347.03;4994170;28;20982;-91
2021/06/23 03:02:30;;;;;;;36.25;28.55;;;;;;;18.61;81.71;100345.94;4993236;28;20406;-91
2021/06/23 03:04:55;;;;;;;34.50;27.97;;;;;;;18.57;82.51;100333.16;4993717;28;20407;-93
2021/06/23 03:07:22;;;;;;;31.40;25.67;;;;;;;18.47;81.75;100323.13;4993990;28;20417;-92
2021/06/23 03:09:47;;;;;;;27.42;24.50;;;;;;;18.40;81.76;100319.94;4994356;28;20414;-91
2021/06/23 03:12:14;;;;;;;25.70;23.10;;;;;;;18.32;82.36;100337.09;4994768;28;20890;-93
2021/06/23 03:14:40;;;;;;;29.40;25.00;;;;;;;18.46;82.04;100367.31;4994204;28;20489;-92
2021/06/23 03:17:05;;;;;;;31.35;26.48;;;;;;;18.55;82.26;100396.56;4993684;28;20877;-92
2021/06/23 03:19:32;;;;;;;40.07;27.30;;;;;;;18.63;81.83;100397.81;4994330;28;20446;-94
2021/06/23 03:22:05;;;;;;;39.10;28.52;;;;;;;18.59;82.49;100405.00;4994656;28;20424;-94
2021/06/23 03:24:31;;;;;;;37.07;26.23;;;;;;;18.58;82.77;100408.84;4994330;28;20406;-92
2021/06/23 03:26:57;;;;;;;28.67;23.73;;;;;;;18.64;82.75;100411.22;4992355;28;20414;-92
2021/06/23 03:29:22;;;;;;;29.67;22.87;;;;;;;18.69;82.25;100407.59;4976315;28;20512;-93
2021/06/23 03:31:47;;;;;;;24.27;21.00;;;;;;;18.62;81.30;100398.91;4991406;28;20422;-94
2021/06/23 03:34:12;;;;;;;32.13;23.17;;;;;;;18.50;81.14;100388.41;4992189;28;20404;-93
2021/06/23 03:36:38;;;;;;;34.93;23.27;;;;;;;18.39;81.44;100373.19;4986869;28;20409;-94
2021/06/23 03:39:03;;;;;;;29.80;23.10;;;;;;;18.30;81.29;100354.97;4995243;28;20398;-94
2021/06/23 03:41:28;;;;;;;26.80;22.37;;;;;;;18.32;81.85;100359.03;4994348;28;20484;-96
2021/06/23 03:43:54;;;;;;;24.93;21.33;;;;;;;18.31;81.81;100365.63;4995058;28;20398;-94
2021/06/23 03:46:19;;;;;;;23.53;20.23;;;;;;;18.28;81.42;100370.88;5027020;28;20826;-95
2021/06/23 03:48:44;;;;;;;23.57;20.77;;;;;;;18.25;81.54;100371.47;4994513;28;20402;-96
2021/06/23 03:51:09;;;;;;;24.20;20.73;;;;;;;18.27;81.50;100372.84;4993457;28;20398;-93
2021/06/23 03:53:35;;;;;;;23.50;21.10;;;;;;;18.26;80.76;100364.88;4994006;28;20909;-93
2021/06/23 03:56:00;;;;;;;24.10;20.30;;;;;;;18.27;81.11;100374.75;4981733;28;20430;-92
2021/06/23 03:58:25;;;;;;;29.07;19.77;;;;;;;18.31;80.54;100370.31;5009712;28;20399;-93
2021/06/23 04:00:50;;;;;;;20.60;18.45;;;;;;;18.26;80.85;100367.63;4994650;28;20408;-92
2021/06/23 04:03:16;;;;;;;22.30;19.30;;;;;;;18.35;80.84;100366.66;4994731;28;20415;-92
2021/06/23 04:05:42;;;;;;;20.55;17.95;;;;;;;18.32;80.81;100372.75;4994298;28;20391;-93
2021/06/23 04:08:07;;;;;;;20.70;18.53;;;;;;;18.40;80.55;100380.31;4991875;28;21327;-93
2021/06/23 04:10:32;;;;;;;21.23;17.90;;;;;;;18.48;80.34;100379.63;4989678;28;20418;-93
2021/06/23 04:12:57;;;;;;;20.20;18.05;;;;;;;18.58;80.18;100379.47;4993410;28;20402;-95
2021/06/23 04:15:23;;;;;;;22.30;19.17;;;;;;;18.70;80.12;100380.97;4994219;28;20817;-94
2021/06/23 04:17:48;;;;;;;22.63;20.10;;;;;;;18.72;79.73;100384.22;4994293;28;20409;-94
2021/06/23 04:20:14;;;;;;;20.87;18.67;;;;;;;18.75;79.92;100386.34;5012809;28;20440;-93
2021/06/23 04:22:39;;;;;;;19.48;17.23;;;;;;;18.79;79.39;100390.13;5013996;28;20961;-92
2021/06/23 04:25:08;;;;;;;22.85;18.23;;;;;;;18.79;79.45;100392.88;5013472;28;20436;-94
2021/06/23 04:27:33;;;;;;;20.50;18.27;;;;;;;18.75;79.18;100397.31;4992900;28;20390;-94
2021/06/23 04:29:59;;;;;;;21.23;18.23;;;;;;;18.77;79.60;100411.59;4994057;28;20738;-93
2021/06/23 04:32:24;;;;;;;22.53;18.63;;;;;;;18.78;79.07;100407.72;4994200;28;20395;-94
2021/06/23 04:34:49;;;;;;;21.07;18.87;;;;;;;18.76;79.18;100410.78;4993852;28;20399;-95
2021/06/23 04:37:15;;;;;;;20.40;18.20;;;;;;;18.78;79.31;100421.44;4993761;28;20413;-94
2021/06/23 04:39:40;;;;;;;20.37;18.17;;;;;;;18.79;79.43;100412.91;4989809;28;20407;-92
2021/06/23 04:42:05;;;;;;;19.77;17.67;;;;;;;18.79;79.35;100421.16;4997475;28;20412;-91
2021/06/23 04:44:31;;;;;;;18.80;16.90;;;;;;;18.78;79.11;100419.50;4984052;28;20489;-92
2021/06/23 04:46:56;;;;;;;19.90;17.87;;;;;;;18.80;78.99;100424.72;4993612;28;20933;-93
2021/06/23 04:49:21;;;;;;;21.23;19.07;;;;;;;18.79;78.74;100426.63;4993472;28;20409;-93
2021/06/23 04:51:47;;;;;;;21.27;18.83;;;;;;;18.67;78.89;100424.34;4993267;28;20413;-92
2021/06/23 04:54:12;;;;;;;23.37;20.63;;;;;;;18.67;78.36;100424.34;4992282;28;20505;-92
2021/06/23 04:56:37;;;;;;;22.30;19.67;;;;;;;18.72;78.79;100428.94;4988473;28;20480;-91
2021/06/23 04:59:03;;;;;;;25.38;19.95;;;;;;;18.69;78.41;100434.22;4988986;28;20395;-92
2021/06/23 05:01:28;;;;;;;20.67;18.73;;;;;;;18.61;78.55;100425.53;5024519;28;20398;-92
2021/06/23 05:03:53;;;;;;;23.43;19.20;;;;;;;18.64;78.58;100440.59;5007022;28;20397;-92
2021/06/23 05:06:19;;;;;;;22.60;20.15;;;;;;;18.53;78.63;100433.66;5005341;28;20406;-92
2021/06/23 05:08:44;;;;;;;20.93;18.73;;;;;;;18.61;78.97;100436.53;5020519;28;20923;-94
2021/06/23 05:11:10;;;;;;;24.33;18.58;;;;;;;18.61;78.55;100442.00;4994425;28;20407;-92
2021/06/23 05:13:37;;;;;;;19.73;17.53;;;;;;;18.65;78.56;100443.06;5002453;28;20403;-92
2021/06/23 05:16:04;;;;;;;19.67;17.40;;;;;;;18.72;78.30;100442.69;4992904;28;20422;-93
2021/06/23 05:18:31;;;;;;;22.08;19.05;;;;;;;18.67;77.46;100440.03;4989632;28;20413;-93
2021/06/23 05:20:58;;;;;;;20.75;18.63;;;;;;;18.60;78.12;100445.88;4992031;28;20508;-92
2021/06/23 05:23:24;;;;;;;21.05;18.77;;;;;;;18.54;77.69;100455.28;4991197;28;20489;-91
2021/06/23 05:25:49;;;;;;;19.15;17.10;;;;;;;18.51;77.85;100450.41;4992367;28;20424;-91
2021/06/23 05:28:14;;;;;;;20.73;18.70;;;;;;;18.58;77.60;100459.06;4997958;28;20467;-91
2021/06/23 05:30:39;;;;;;;20.10;17.50;;;;;;;18.67;77.52;100458.41;4983269;28;20840;-92
2021/06/23 05:33:05;;;;;;;20.85;17.73;;;;;;;18.76;77.21;100453.88;4983099;28;20428;-92
2021/06/23 05:35:30;;;;;;;18.57;16.67;;;;;;;18.78;76.81;100457.94;4986650;28;20748;-94
2021/06/23 05:37:55;;;;;;;19.87;17.87;;;;;;;18.94;76.47;100466.75;5009211;28;20405;-89
2021/06/23 05:40:21;;;;;;;19.00;17.00;;;;;;;18.93;76.13;100463.22;4991961;28;20414;-91
2021/06/23 05:42:46;;;;;;;18.93;17.13;;;;;;;19.05;75.86;100468.22;5024267;28;20399;-92
2021/06/23 05:45:12;;;;;;;20.03;17.67;;;;;;;19.06;76.15;100461.63;4992424;28;20781;-93
2021/06/23 05:47:37;;;;;;;19.08;17.17;;;;;;;19.19;75.99;100460.84;5008145;28;20403;-92
2021/06/23 05:50:03;;;;;;;18.50;16.57;;;;;;;19.49;75.02;100462.25;4990744;28;20897;-88
2021/06/23 05:52:28;;;;;;;21.52;17.92;;;;;;;19.69;73.99;100468.16;4989499;28;20448;-88
2021/06/23 05:54:54;;;;;;;20.20;18.20;;;;;;;19.68;73.39;100465.72;4991023;28;20414;-93
2021/06/23 05:57:19;;;;;;;21.35;19.05;;;;;;;19.55;73.76;100472.84;4992876;28;20426;-95
2021/06/23 05:59:45;;;;;;;21.77;19.77;;;;;;;19.56;74.08;100474.44;4993200;28;20399;-96
2021/06/23 06:02:10;;;;;;;24.50;21.60;;;;;;;19.53;74.39;100479.72;4995897;28;20473;-94
2021/06/23 06:04:35;;;;;;;24.50;22.13;;;;;;;19.67;74.09;100467.66;4993486;28;20512;-95
2021/06/23 06:07:01;;;;;;;23.00;20.63;;;;;;;19.87;73.55;100468.34;4997142;28;20414;-94
2021/06/23 06:09:29;;;;;;;24.27;21.70;;;;;;;20.12;72.52;100471.38;4995331;28;20541;-95
2021/06/23 06:11:54;;;;;;;25.08;21.85;;;;;;;20.26;71.95;100479.63;4995463;28;20399;-95
2021/06/23 06:14:20;;;;;;;23.80;21.33;;;;;;;20.54;71.69;100480.41;4996389;28;20762;-94
2021/06/23 06:16:45;;;;;;;24.90;22.40;;;;;;;20.78;71.19;100483.69;4996139;28;20528;-93
2021/06/23 06:19:10;;;;;;;25.92;23.02;;;;;;;20.92;71.13;100475.38;4996471;28;20398;-94
2021/06/23 06:21:36;;;;;;;27.03;24.33;;;;;;;21.06;70.87;100481.63;4997269;28;20911;-95
2021/06/23 06:24:01;;;;;;;26.23;23.10;;;;;;;21.03;69.27;100482.25;4995864;28;20410;-86
2021/06/23 06:26:28;;;;;;;26.13;23.30;;;;;;;21.07;69.82;100483.28;4995870;28;20402;-94
2021/06/23 06:28:53;;;;;;;25.38;22.92;;;;;;;21.14;69.95;100481.72;4996276;28;20413;-94
2021/06/23 06:31:18;;;;;;;25.30;22.80;;;;;;;21.01;69.76;100484.53;4996483;28;20754;-94
2021/06/23 06:33:44;;;;;;;28.05;24.67;;;;;;;20.86;69.85;100482.94;4995136;28;20506;-94
2021/06/23 06:36:09;;;;;;;25.70;23.30;;;;;;;20.78;70.96;100489.19;4995833;28;20419;-94
2021/06/23 06:38:34;;;;;;;25.93;23.47;;;;;;;20.90;70.83;100494.97;4996059;28;20453;-90
2021/06/23 06:41:02;;;;;;;26.70;23.90;;;;;;;21.02;70.52;100488.91;4995231;28;20413;-94
2021/06/23 06:43:27;;;;;;;26.52;23.90;;;;;;;21.32;70.42;100481.81;4995971;28;20415;-92
2021/06/23 06:45:53;;;;;;;25.20;22.80;;;;;;;21.59;68.99;100484.41;4996502;28;20422;-93
2021/06/23 06:48:22;;;;;;;25.40;22.70;;;;;;;21.70;69.49;100491.28;4994772;28;20441;-94
2021/06/23 06:50:48;;;;;;;25.47;23.00;;;;;;;21.77;69.33;100501.88;5011154;28;20410;-95
2021/06/23 06:53:13;;;;;;;22.92;20.63;;;;;;;21.77;69.27;100502.66;4995567;28;20425;-94
2021/06/23 06:55:38;;;;;;;22.73;20.63;;;;;;;21.65;69.57;100506.03;4994855;28;20410;-95
2021/06/23 06:58:04;;;;;;;21.03;19.13;;;;;;;21.42;69.82;100504.44;4980184;28;20396;-94
2021/06/23 07:00:29;;;;;;;21.77;19.57;;;;;;;21.35;70.97;100503.25;4984922;28;20391;-95
2021/06/23 07:02:55;;;;;;;22.95;20.60;;;;;;;21.21;71.32;100506.91;4994858;28;20549;-95
2021/06/23 07:05:21;;;;;;;25.13;22.53;;;;;;;21.18;71.35;100507.53;4992429;28;20403;-93
2021/06/23 07:07:47;;;;;;;22.95;20.52;;;;;;;21.14;71.36;100508.47;4976184;28;20491;-94
2021/06/23 07:10:12;;;;;;;22.70;20.53;;;;;;;21.04;70.90;100509.50;4995549;28;20807;-94
2021/06/23 07:12:38;;;;;;;25.77;23.37;;;;;;;20.92;71.39;100514.75;5026889;28;20405;-94
2021/06/23 07:15:05;;;;;;;27.83;24.97;;;;;;;20.82;71.82;100515.00;4991027;28;20499;-95
2021/06/23 07:17:30;;;;;;;29.85;26.65;;;;;;;20.76;72.40;100512.66;4974227;28;20899;-94
2021/06/23 07:19:55;;;;;;;28.53;25.97;;;;;;;20.74;72.66;100513.00;4977384;28;20408;-96
2021/06/23 07:22:23;;;;;;;29.00;26.17;;;;;;;20.60;72.42;100518.53;4996408;28;20444;-95
2021/06/23 07:24:48;;;;;;;30.75;23.50;;;;;;;20.44;71.45;100521.94;4996065;28;20940;-93
2021/06/23 07:27:14;;;;;;;25.33;22.63;;;;;;;20.36;72.47;100533.66;4997230;28;20395;-93
2021/06/23 07:29:39;;;;;;;24.10;21.60;;;;;;;20.34;72.25;100533.97;4997434;28;20410;-95
2021/06/23 07:32:12;;;;;;;24.07;21.57;;;;;;;20.24;73.07;100536.91;4998938;28;20410;-91
2021/06/23 07:37:15;;;;;;;25.80;23.45;;;;;;;20.24;72.58;100536.09;4996027;28;20414;-89
2021/06/23 07:39:41;;;;;;;25.60;23.17;;;;;;;20.26;72.65;100534.66;4998073;28;20453;-88
2021/06/23 07:42:08;;;;;;;27.47;24.67;;;;;;;20.24;72.78;100542.41;4997453;28;20406;-95
2021/06/23 07:44:41;;;;;;;27.60;24.90;;;;;;;20.24;72.65;100545.16;5027795;28;20411;-92
2021/06/23 07:47:11;;;;;;;26.75;23.88;;;;;;;20.21;72.66;100543.03;4995416;28;20403;-90
2021/06/23 07:49:39;;;;;;;28.13;25.07;;;;;;;20.15;73.39;100541.50;5011164;28;20399;-93
2021/06/23 07:52:09;;;;;;;29.35;26.35;;;;;;;20.32;73.04;100546.44;4995616;28;20398;-93
2021/06/23 08:10:39;;;;;;;28.60;25.50;;;;;;;20.81;71.54;100551.94;4994410;28;20429;-94
2021/06/23 08:13:06;;;;;;;28.55;25.75;;;;;;;20.88;71.36;100546.78;4995704;28;20489;-96
2021/06/23 08:15:33;;;;;;;29.45;26.60;;;;;;;20.90;71.38;100547.31;5011038;28;20414;-96
2021/06/23 08:17:59;;;;;;;28.85;26.13;;;;;;;20.91;71.10;100542.63;5008010;28;20409;-94
2021/06/23 08:20:25;;;;;;;28.52;25.77;;;;;;;21.06;71.15;100548.59;4993328;28;20385;-93
2021/06/23 08:22:51;;;;;;;27.90;25.13;;;;;;;21.24;70.84;100549.53;4992329;28;20392;-95
2021/06/23 08:25:17;;;;;;;28.65;25.83;;;;;;;21.35;70.14;100545.41;5013596;28;20733;-94
2021/06/23 08:27:43;;;;;;;26.83;24.15;;;;;;;21.37;69.82;100551.41;4992235;28;20399;-93
2021/06/23 08:30:10;;;;;;;26.47;23.80;;;;;;;21.51;69.77;100541.13;4975496;28;20396;-92
2021/06/23 08:32:36;;;;;;;27.08;24.30;;;;;;;21.83;68.61;100544.72;4976897;28;20388;-96
2021/06/23 08:35:06;;;;;;;27.80;25.20;;;;;;;21.89;67.49;100527.75;5005584;28;20466;-92
2021/06/23 08:37:32;;;;;;;29.30;26.45;;;;;;;21.92;67.98;100537.31;5003438;28;20414;-93
2021/06/23 08:39:58;;;;;;;29.37;26.53;;;;;;;21.94;68.36;100540.56;5013560;28;20437;-94
2021/06/23 08:42:24;;;;;;;29.15;26.23;;;;;;;21.97;67.89;100540.75;5003503;28;20490;-94
2021/06/23 08:44:50;;;;;;;31.20;28.35;;;;;;;21.93;67.71;100539.75;5001332;28;20391;-96
2021/06/23 08:47:17;;;;;;;28.80;26.20;;;;;;;22.05;67.21;100545.50;5036933;28;20406;-95
2021/06/23 08:49:44;;;;;;;29.70;26.80;;;;;;;22.27;67.33;100535.47;5006934;28;20403;-94
2021/06/23 08:52:10;;;;;;;29.85;27.15;;;;;;;22.74;66.04;100537.41;5019930;28;20424;-94
2021/06/23 08:54:36;;;;;;;29.42;26.70;;;;;;;23.38;63.96;100541.09;5023173;28;20417;-93
2021/06/23 08:57:06;;;;;;;27.63;25.08;;;;;;;24.13;61.43;100525.78;5022249;28;21404;-95
2021/06/23 08:59:31;;;;;;;26.30;24.02;;;;;;;24.67;58.85;100527.53;5008616;28;20421;-94
2021/06/23 09:01:57;;;;;;;26.92;24.70;;;;;;;24.87;58.64;100525.13;5001391;28;20406;-95
2021/06/23 09:04:25;;;;;;;28.47;25.97;;;;;;;25.55;57.14;100516.22;5025512;28;20414;-95
2021/06/23 09:06:58;;;;;;;27.25;24.77;;;;;;;26.72;53.44;100520.03;5007892;28;20757;-96
2021/06/23 09:09:30;;;;;;;25.87;23.53;;;;;;;27.74;50.75;100524.94;5019353;28;20417;-94
2021/06/23 09:12:01;;;;;;;22.38;20.13;;;;;;;31.22;41.99;100525.75;5005716;28;20461;-95
2021/06/23 09:14:29;;;;;;;21.27;19.38;;;;;;;32.98;38.34;100526.44;5010617;28;20398;-95
2021/06/23 09:17:13;;;;;;;20.23;18.50;;;;;;;35.20;34.13;100530.53;5011481;28;20402;-94
2021/06/23 09:19:46;;;;;;;19.33;17.60;;;;;;;36.28;31.83;100530.22;5055134;23;20435;-96
2021/06/23 09:22:32;;;;;;;16.98;15.50;;;;;;;35.78;31.91;100527.78;4985143;28;20424;-96
2021/06/23 09:25:00;;;;;;;18.08;16.65;;;;;;;35.80;32.46;100528.16;4982023;28;20412;-96
2021/06/23 09:27:30;;;;;;;16.52;15.32;;;;;;;35.53;32.90;100537.59;4980198;28;20428;-93
2021/06/23 09:30:32;;;;;;;17.40;15.85;;;;;;;31.37;39.96;100533.94;4974877;28;20412;-93
2021/06/23 09:33:17;;;;;;;16.58;15.38;;;;;;;30.84;42.17;100530.44;4974531;28;20955;-94
2021/06/23 09:35:46;;;;;;;19.15;17.27;;;;;;;29.26;44.90;100520.97;4955201;28;20425;-92
2021/06/23 09:38:33;;;;;;;16.30;14.70;;;;;;;30.65;42.17;100526.97;4986321;28;20404;-94
2021/06/23 09:41:17;;;;;;;14.60;13.40;;;;;;;30.03;43.93;100525.59;4977130;28;20502;-95
2021/06/23 09:43:43;;;;;;;14.60;13.43;;;;;;;30.76;44.04;100525.91;4966284;28;20400;-94
2021/06/23 09:46:25;;;;;;;13.47;12.47;;;;;;;31.88;39.45;100525.66;4979084;28;20411;-94
2021/06/23 09:49:28;;;;;;;13.20;12.20;;;;;;;29.47;43.84;100522.56;4972249;28;20415;-92
2021/06/23 09:51:56;;;;;;;12.55;11.68;;;;;;;32.03;39.60;100518.19;4973347;28;20403;-93
2021/06/23 09:54:23;;;;;;;11.98;11.07;;;;;;;31.74;40.00;100519.94;4991481;28;20419;-93
2021/06/23 09:56:49;;;;;;;12.43;11.50;;;;;;;29.50;44.07;100516.25;4976174;28;20496;-93
2021/06/23 09:59:25;;;;;;;11.82;10.63;;;;;;;27.84;48.07;100505.75;4976979;28;20845;-93
2021/06/23 10:01:51;;;;;;;12.40;11.43;;;;;;;26.93;49.89;100506.81;4974880;28;20498;-94
2021/06/23 10:04:16;;;;;;;11.77;10.77;;;;;;;26.95;51.96;100509.22;4976305;28;20907;-94
2021/06/23 10:06:45;;;;;;;13.27;12.37;;;;;;;27.11;50.93;100505.31;4976729;28;20411;-94
2021/06/23 10:09:22;;;;;;;15.70;14.48;;;;;;;26.94;49.98;100510.41;4975735;28;20918;-94
2021/06/23 10:11:56;;;;;;;13.25;12.40;;;;;;;27.30;50.01;100507.41;4977116;28;20392;-95
2021/06/23 10:14:23;;;;;;;13.70;12.50;;;;;;;28.09;49.11;100500.78;4976867;28;20427;-94
2021/06/23 10:16:53;;;;;;;11.07;10.20;;;;;;;31.71;40.90;100500.28;4975243;28;20930;-95
2021/06/23 10:19:19;;;;;;;11.65;10.75;;;;;;;30.35;42.30;100505.34;4984611;28;20479;-96
2021/06/23 10:21:45;;;;;;;10.07;9.27;;;;;;;28.84;45.91;100495.78;4988619;28;20451;-94
2021/06/23 10:24:12;;;;;;;10.40;9.70;;;;;;;28.16;47.04;100491.81;4976655;28;20404;-95
2021/06/23 10:26:43;;;;;;;9.55;8.85;;;;;;;30.36;45.12;100487.38;4975168;28;20462;-92
2021/06/23 10:29:09;;;;;;;8.13;7.53;;;;;;;33.68;35.72;100499.81;4976369;28;20392;-90
2021/06/23 10:31:35;;;;;;;9.73;8.82;;;;;;;31.99;39.51;100499.72;4979336;28;20493;-92
2021/06/23 10:34:02;;;;;;;8.27;7.68;;;;;;;31.54;39.92;100484.09;4978410;28;20444;-93
2021/06/23 10:36:27;;;;;;;8.82;8.13;;;;;;;31.47;39.54;100495.22;4974748;28;20437;-92
2021/06/23 10:38:54;;;;;;;7.93;7.33;;;;;;;31.01;41.09;100483.50;4976006;28;20487;-93
2021/06/23 10:41:21;;;;;;;8.50;7.87;;;;;;;29.91;41.99;100479.09;4975909;28;20408;-94
2021/06/23 10:44:23;;;;;;;7.77;7.10;;;;;;;28.92;44.88;100473.59;4976190;28;20872;-93
2021/06/23 10:46:52;;;;;;;7.78;7.07;;;;;;;28.91;46.49;100478.38;4980393;28;20486;-93
2021/06/23 10:49:44;;;;;;;7.40;6.80;;;;;;;29.71;44.69;100475.53;4977596;28;20395;-92
2021/06/23 10:52:21;;;;;;;6.88;6.35;;;;;;;33.19;38.82;100478.81;4974752;28;20419;-93
2021/06/23 10:55:00;;;;;;;8.30;5.68;;;;;;;37.29;30.88;100496.38;4987091;28;20411;-93
2021/06/23 10:57:36;;;;;;;5.60;5.10;;;;;;;39.73;26.52;100503.13;4995123;28;20398;-93
2021/06/23 11:00:21;;;;;;;4.90;4.57;;;;;;;41.87;24.11;100510.81;4979441;28;20396;-94
2021/06/23 11:02:59;;;;;;;4.70;4.47;;;;;;;38.47;26.86;100513.06;4971923;28;20458;-92
2021/06/23 11:05:42;;;;;;;4.65;4.45;;;;;;;33.57;33.99;100499.75;4973791;28;20474;-92
2021/06/23 11:08:31;;;;;;;5.25;4.75;;;;;;;30.86;39.89;100499.25;4975923;28;20475;-91
2021/06/23 11:11:10;;;;;;;4.87;4.40;;;;;;;29.34;43.26;100499.59;4960632;28;20405;-93
2021/06/23 11:13:38;;;;;;;4.87;4.50;;;;;;;28.40;45.43;100497.16;4972703;28;20827;-86
2021/06/23 11:16:05;;;;;;;4.65;4.35;;;;;;;28.41;45.86;100497.97;4980986;28;20430;-87
2021/06/23 11:18:39;;;;;;;5.15;4.85;;;;;;;28.57;44.99;100493.97;4973673;28;20420;-86
2021/06/23 11:21:08;;;;;;;4.35;3.95;;;;;;;31.31;40.12;100490.66;4976842;28;20411;-88
2021/06/23 11:23:42;;;;;;;4.45;3.55;;;;;;;35.51;32.41;100504.19;4975770;28;20495;-94
2021/06/23 11:26:28;;;;;;;4.10;3.80;;;;;;;36.45;31.46;100501.03;4990955;28;20403;-93
2021/06/23 11:29:20;;;;;;;4.33;3.87;;;;;;;36.26;29.94;100507.28;4975967;28;21042;-93
2021/06/23 11:32:01;;;;;;;3.05;2.88;;;;;;;36.25;30.01;100505.66;4985533;28;20424;-88
2021/06/23 11:34:35;;;;;;;3.10;2.80;;;;;;;34.36;33.24;100501.41;4975017;28;20480;-92